createdAt,value
2023-01-08T00:02:25.680Z,12.60
2023-01-08T00:12:31.042Z,12.10
2023-01-08T00:22:34.839Z,12.20
2023-01-08T00:32:40.061Z,12.10
2023-01-08T00:42:43.790Z,12.20
2023-01-08T00:52:48.796Z,12.20
2023-01-08T01:02:52.564Z,12.00
2023-01-08T01:12:58.087Z,12.10
2023-01-08T01:23:02.002Z,12.20
2023-01-08T01:33:07.314Z,12.20
2023-01-08T01:43:14.311Z,12.40
2023-01-08T01:53:23.485Z,12.40
2023-01-08T02:03:31.380Z,12.60
2023-01-08T02:13:39.914Z,13.50
2023-01-08T02:23:49.375Z,14.10
2023-01-08T02:33:55.099Z,13.50
2023-01-08T02:44:01.197Z,13.50
2023-01-08T02:54:10.620Z,13.70
2023-01-08T03:04:36.182Z,12.90
2023-01-08T03:15:00.660Z,13.20
2023-01-08T03:25:05.799Z,13.00
2023-01-08T03:35:13.187Z,13.10
2023-01-08T03:45:17.062Z,13.40
2023-01-08T03:55:22.296Z,13.30
2023-01-08T04:05:26.145Z,13.30
2023-01-08T04:15:31.344Z,13.00
2023-01-08T04:25:35.094Z,13.00
2023-01-08T04:35:40.071Z,13.00
2023-01-08T04:45:43.705Z,13.00
2023-01-08T05:06:10.130Z,13.40
2023-01-08T05:16:15.282Z,13.30
2023-01-08T05:26:19.620Z,13.10
2023-01-08T05:36:24.793Z,12.70
2023-01-08T05:46:28.550Z,12.10
2023-01-08T05:56:33.663Z,11.80
2023-01-08T06:06:37.350Z,11.40
2023-01-08T06:16:42.965Z,11.10
2023-01-08T06:26:46.644Z,12.50
2023-01-08T06:36:52.469Z,12.50
2023-01-08T06:46:56.242Z,12.80
2023-01-08T06:57:01.339Z,12.90
2023-01-08T07:07:05.839Z,12.80
2023-01-08T07:17:11.187Z,12.70
2023-01-08T07:27:15.055Z,12.50
2023-01-08T07:37:20.351Z,12.20
2023-01-08T07:47:24.124Z,12.30
2023-01-08T07:57:30.923Z,12.00
2023-01-08T08:07:34.801Z,12.60
2023-01-08T08:17:40.187Z,12.90
2023-01-08T08:27:44.540Z,13.10
2023-01-08T08:37:50.230Z,13.50
2023-01-08T08:47:53.967Z,14.60
2023-01-08T08:58:05.664Z,14.90
2023-01-08T09:08:09.416Z,14.00
2023-01-08T09:18:16.099Z,13.90
2023-01-08T09:28:20.045Z,14.40
2023-01-08T09:38:25.568Z,14.60
2023-01-08T09:48:34.174Z,14.60
2023-01-08T09:58:41.958Z,14.70
2023-01-08T10:18:56.755Z,15.70
2023-01-08T10:29:12.838Z,15.80
2023-01-08T10:39:24.465Z,16.10
2023-01-08T10:49:33.385Z,15.80
2023-01-08T10:59:57.871Z,16.10
2023-01-08T11:10:01.538Z,16.60
2023-01-08T11:20:22.131Z,16.30
2023-01-08T11:41:29.593Z,16.20
2023-01-08T11:51:54.697Z,16.30
2023-01-08T12:02:08.367Z,16.60
2023-01-08T12:12:26.646Z,17.00
2023-01-08T12:22:45.739Z,16.60
2023-01-08T12:32:53.402Z,15.70
2023-01-08T12:43:01.657Z,16.30
2023-01-08T12:53:11.258Z,16.00
2023-01-08T13:03:24.119Z,16.10
2023-01-08T13:13:30.112Z,16.00
2023-01-08T13:23:38.945Z,15.90
2023-01-08T13:33:43.504Z,15.40
2023-01-08T13:43:49.842Z,15.40
2023-01-08T13:53:53.716Z,15.80
2023-01-08T14:03:59.249Z,15.70
2023-01-08T14:14:04.620Z,15.80
2023-01-08T14:24:16.916Z,15.30
2023-01-08T14:34:21.631Z,15.20
2023-01-08T14:44:37.049Z,15.60
2023-01-08T14:54:41.698Z,15.70
2023-01-08T15:04:46.843Z,16.10
2023-01-08T15:14:50.575Z,16.10
2023-01-08T15:25:00.447Z,16.20
2023-01-08T15:35:14.285Z,16.10
2023-01-08T15:45:21.550Z,16.00
2023-01-08T15:55:26.563Z,15.90
2023-01-08T16:05:33.162Z,16.00
2023-01-08T16:15:36.881Z,16.00
2023-01-08T16:25:42.036Z,15.80
2023-01-08T16:35:45.750Z,15.50
2023-01-08T16:45:50.943Z,15.30
2023-01-08T16:55:54.645Z,15.40
2023-01-08T17:06:04.552Z,15.40
2023-01-08T17:16:09.961Z,15.40
2023-01-08T17:26:17.897Z,15.70
2023-01-08T17:36:39.989Z,15.40
2023-01-08T17:46:46.001Z,15.00
2023-01-08T17:56:49.828Z,15.00
2023-01-08T18:07:12.756Z,14.90
2023-01-08T18:17:16.433Z,14.80
2023-01-08T18:27:21.505Z,15.00
2023-01-08T18:37:25.152Z,14.90
2023-01-08T18:47:30.889Z,14.80
2023-01-08T18:57:34.477Z,14.90
2023-01-08T19:07:41.641Z,15.10
2023-01-08T19:17:45.392Z,15.20
2023-01-08T19:27:50.656Z,15.30
2023-01-08T19:37:54.641Z,15.20
2023-01-08T19:47:59.853Z,15.40
2023-01-08T19:58:03.529Z,15.50
2023-01-08T20:08:08.734Z,15.50
2023-01-08T20:18:31.708Z,15.40
2023-01-08T20:28:38.050Z,15.70
2023-01-08T20:38:42.184Z,15.70
2023-01-08T20:48:48.115Z,16.00
2023-01-08T20:58:52.231Z,16.10
2023-01-08T21:19:19.977Z,16.30
2023-01-08T21:29:25.117Z,16.60
2023-01-08T21:39:28.925Z,17.00
2023-01-08T21:49:36.400Z,16.80
2023-01-08T21:59:40.036Z,16.80
2023-01-08T22:09:45.886Z,16.70
2023-01-08T22:19:49.725Z,16.40
2023-01-08T22:30:13.992Z,16.10
2023-01-08T22:40:18.220Z,15.60
2023-01-08T22:50:23.316Z,15.40
2023-01-08T23:00:27.574Z,15.40
2023-01-08T23:10:32.701Z,15.10
2023-01-08T23:20:36.459Z,15.00
2023-01-08T23:30:43.776Z,15.20
2023-01-08T23:40:47.833Z,15.80
2023-01-08T23:50:52.946Z,15.50
